地図

経路データ

SID SEASON NUMBER BASIN SUBBASIN NAME ISO_TIME NATURE LAT LON WMO_WIND WMO_PRES WMO_AGENCY TRACK_TYPE DIST2LAND LANDFALL IFLAG USA_AGENCY USA_ATCF_ID USA_LAT USA_LON USA_RECORD USA_STATUS USA_WIND USA_PRES USA_SSHS USA_R34_NE USA_R34_SE USA_R34_SW USA_R34_NW USA_R50_NE USA_R50_SE USA_R50_SW USA_R50_NW USA_R64_NE USA_R64_SE USA_R64_SW USA_R64_NW USA_POCI USA_ROCI USA_RMW USA_EYE TOKYO_LAT TOKYO_LON TOKYO_GRADE TOKYO_WIND TOKYO_PRES TOKYO_R50_DIR TOKYO_R50_LONG TOKYO_R50_SHORT TOKYO_R30_DIR TOKYO_R30_LONG TOKYO_R30_SHORT TOKYO_LAND CMA_LAT CMA_LON CMA_CAT CMA_WIND CMA_PRES HKO_LAT HKO_LON HKO_CAT HKO_WIND HKO_PRES NEWDELHI_LAT NEWDELHI_LON NEWDELHI_GRADE NEWDELHI_WIND NEWDELHI_PRES NEWDELHI_CI NEWDELHI_DP NEWDELHI_POCI REUNION_LAT REUNION_LON REUNION_TYPE REUNION_WIND REUNION_PRES REUNION_TNUM REUNION_CI REUNION_RMW REUNION_R34_NE REUNION_R34_SE REUNION_R34_SW REUNION_R34_NW REUNION_R50_NE REUNION_R50_SE REUNION_R50_SW REUNION_R50_NW REUNION_R64_NE REUNION_R64_SE REUNION_R64_SW REUNION_R64_NW BOM_LAT BOM_LON BOM_TYPE BOM_WIND BOM_PRES BOM_TNUM BOM_CI BOM_RMW BOM_R34_NE BOM_R34_SE BOM_R34_SW BOM_R34_NW BOM_R50_NE BOM_R50_SE BOM_R50_SW BOM_R50_NW BOM_R64_NE BOM_R64_SE BOM_R64_SW BOM_R64_NW BOM_ROCI BOM_POCI BOM_EYE BOM_POS_METHOD BOM_PRES_METHOD NADI_LAT NADI_LON NADI_CAT NADI_WIND NADI_PRES WELLINGTON_LAT WELLINGTON_LON WELLINGTON_WIND WELLINGTON_PRES DS824_LAT DS824_LON DS824_STAGE DS824_WIND DS824_PRES TD9636_LAT TD9636_LON TD9636_STAGE TD9636_WIND TD9636_PRES TD9635_LAT TD9635_LON TD9635_WIND TD9635_PRES TD9635_ROCI NEUMANN_LAT NEUMANN_LON NEUMANN_CLASS NEUMANN_WIND NEUMANN_PRES MLC_LAT MLC_LON MLC_CLASS MLC_WIND MLC_PRES USA_GUST BOM_GUST BOM_GUST_PER REUNION_GUST REUNION_GUST_PER USA_SEAHGT USA_SEARAD_NE USA_SEARAD_SE USA_SEARAD_SW USA_SEARAD_NW STORM_SPEED STORM_DIR
1986176N11262 1986 58 EP MM CELIA 1986-06-24 18:00:00 TS 10.7000 -97.6000 25 hurdat_epa main 559 559 O_________O___ hurdat_epa EP031986 10.7000 -97.6000 TD 25 -1 10.7000 -97.6000 1 25 7 260
1986176N11262 1986 58 EP MM CELIA 1986-06-24 21:00:00 TS 10.6411 -97.9396 main 577 577 P_________P___ EP031986 10.6400 -97.9376 TD 27 -1 10.6441 -97.9458 1 27 7 262
1986176N11262 1986 58 EP MM CELIA 1986-06-25 00:00:00 TS 10.6000 -98.3000 30 hurdat_epa main 589 589 O_________O___ hurdat_epa EP031986 10.6000 -98.3000 TD 30 -1 10.6000 -98.3000 1 30 7 266
1986176N11262 1986 58 EP MM CELIA 1986-06-25 03:00:00 TS 10.5886 -98.6921 main 604 604 P_________P___ EP031986 10.5925 -98.7000 TD 30 -1 10.5770 -98.6686 1 30 8 269
1986176N11262 1986 58 EP MM CELIA 1986-06-25 06:00:00 TS 10.5932 -99.0866 30 hurdat_epa main 620 620 O_________P___ hurdat_epa EP031986 10.6000 -99.1000 TD 30 -1 10.5727 -99.0466 1 30 7 271
1986176N11262 1986 58 EP MM CELIA 1986-06-25 09:00:00 TS 10.5955 -99.4497 main 628 628 P_________P___ EP031986 10.5999 -99.4575 TD 30 -1 10.5821 -99.4263 1 30 7 271
1986176N11262 1986 58 EP MM CELIA 1986-06-25 12:00:00 TS 10.6000 -99.8000 30 hurdat_epa main 642 642 O_________O___ hurdat_epa EP031986 10.6000 -99.8000 TD 30 -1 10.6000 -99.8000 1 30 7 270
1986176N11262 1986 58 EP MM CELIA 1986-06-25 15:00:00 TS 10.5957 -100.153 main 658 658 P_________P___ EP031986 10.5925 -100.150 TD 30 -1 10.6055 -100.161 1 31 7 270
1986176N11262 1986 58 EP MM CELIA 1986-06-25 18:00:00 TS 10.6050 -100.504 30 hurdat_epa main 670 670 O_________P___ hurdat_epa EP031986 10.6000 -100.500 TD 30 -1 10.6198 -100.515 1 32 7 274
1986176N11262 1986 58 EP MM CELIA 1986-06-25 21:00:00 TS 10.6442 -100.858 main 684 674 P_________P___ EP031986 10.6425 -100.857 TD 32 -1 10.6493 -100.861 1 33 7 278
1986176N11262 1986 58 EP MM CELIA 1986-06-26 00:00:00 TS 10.7000 -101.200 35 hurdat_epa main 687 687 O_________O___ hurdat_epa EP031986 10.7000 -101.200 TS 35 0 10.7000 -101.200 2 35 6 278
1986176N11262 1986 58 EP MM CELIA 1986-06-26 03:00:00 TS 10.7376 -101.504 main 699 691 P_________P___ EP031986 10.7349 -101.500 TS 35 0 10.7457 -101.516 2 36 6 280
1986176N11262 1986 58 EP MM CELIA 1986-06-26 06:00:00 TS 10.8043 -101.807 35 hurdat_epa main 698 695 O_________P___ hurdat_epa EP031986 10.8000 -101.800 TS 35 0 10.8171 -101.828 2 37 7 286
1986176N11262 1986 58 EP MM CELIA 1986-06-26 09:00:00 TS 10.9225 -102.145 main 699 691 P_________P___ EP031986 10.9200 -102.143 TS 37 0 10.9300 -102.151 2 38 7 293
1986176N11262 1986 58 EP MM CELIA 1986-06-26 12:00:00 TS 11.1000 -102.500 40 hurdat_epa main 696 685 O_________O___ hurdat_epa EP031986 11.1000 -102.500 TS 40 0 11.1000 -102.500 2 40 8 301
1986176N11262 1986 58 EP MM CELIA 1986-06-26 15:00:00 TS 11.3234 -102.837 main 690 673 P_________P___ EP031986 11.3199 -102.828 TS 42 0 11.3340 -102.864 2 42 9 306
1986176N11262 1986 58 EP MM CELIA 1986-06-26 18:00:00 TS 11.6061 -103.215 45 hurdat_epa main 676 661 O_________P___ hurdat_epa EP031986 11.6000 -103.200 TS 45 0 11.6244 -103.261 2 45 10 307
1986176N11262 1986 58 EP MM CELIA 1986-06-26 21:00:00 TS 11.9394 -103.672 main 666 646 P_________P___ EP031986 11.9349 -103.663 TS 47 0 11.9526 -103.702 2 47 12 306
1986176N11262 1986 58 EP MM CELIA 1986-06-27 00:00:00 TS 12.3000 -104.200 50 hurdat_epa main 651 641 O_________O___ hurdat_epa EP031986 12.3000 -104.200 TS 50 0 12.3000 -104.200 2 50 13 303
1986176N11262 1986 58 EP MM CELIA 1986-06-27 03:00:00 TS 12.6438 -104.780 main 648 623 P_________P___ EP031986 12.6499 -104.778 TS 52 0 12.6257 -104.787 2 52 14 300
1986176N11262 1986 58 EP MM CELIA 1986-06-27 06:00:00 TS 12.9916 -105.407 55 hurdat_epa main 627 615 O_________P___ hurdat_epa EP031986 13.0000 -105.400 TS 55 0 12.9664 -105.426 2 55 14 299
1986176N11262 1986 58 EP MM CELIA 1986-06-27 09:00:00 TS 13.3378 -106.063 main 624 612 P_________P___ EP031986 13.3425 -106.058 TS 57 0 13.3239 -106.077 2 57 14 299
1986176N11262 1986 58 EP MM CELIA 1986-06-27 12:00:00 TS 13.7000 -106.700 60 hurdat_epa main 618 614 O_________O___ hurdat_epa EP031986 13.7000 -106.700 TS 60 0 13.7000 -106.700 2 60 14 302
1986176N11262 1986 58 EP MM CELIA 1986-06-27 15:00:00 TS 14.0700 -107.271 main 620 615 P_________P___ EP031986 14.0698 -107.273 TS 65 1 14.0705 -107.266 2 65 13 307
1986176N11262 1986 58 EP MM CELIA 1986-06-27 18:00:00 TS 14.5000 -107.800 70 hurdat_epa main 615 599 O_________O___ hurdat_epa EP031986 14.5000 -107.800 HU 70 1 14.5000 -107.800 3 70 14 314
1986176N11262 1986 58 EP MM CELIA 1986-06-27 21:00:00 TS 15.0319 -108.315 main 599 585 P_________P___ EP031986 15.0349 -108.315 HU 72 1 15.0230 -108.313 3 72 15 319
1986176N11262 1986 58 EP MM CELIA 1986-06-28 00:00:00 TS 15.6000 -108.800 75 hurdat_epa main 585 576 O_________O___ hurdat_epa EP031986 15.6000 -108.800 HU 75 1 15.6000 -108.800 4 75 14 320
1986176N11262 1986 58 EP MM CELIA 1986-06-28 03:00:00 TS 16.1049 -109.260 main 584 576 P_________P___ EP031986 16.0849 -109.258 HU 72 1 16.1648 -109.267 4 73 14 320
1986176N11262 1986 58 EP MM CELIA 1986-06-28 06:00:00 TS 16.6348 -109.704 70 hurdat_epa main 580 573 O_________P___ hurdat_epa EP031986 16.6000 -109.700 HU 70 1 16.7392 -109.715 4 72 14 323
1986176N11262 1986 58 EP MM CELIA 1986-06-28 09:00:00 TS 17.2503 -110.151 main 580 562 P_________P___ EP031986 17.2274 -110.150 HU 70 1 17.3190 -110.155 4 71 15 326
1986176N11262 1986 58 EP MM CELIA 1986-06-28 12:00:00 TS 17.9000 -110.600 70 hurdat_epa main 562 502 O_________O___ hurdat_epa EP031986 17.9000 -110.600 HU 70 1 17.9000 -110.600 4 70 16 327
1986176N11262 1986 58 EP MM CELIA 1986-06-28 15:00:00 TS 18.5572 -111.057 main 494 449 P_________P___ EP031986 18.5723 -111.043 HU 67 1 18.5117 -111.100 4 68 16 326
1986176N11262 1986 58 EP MM CELIA 1986-06-28 18:00:00 TS 19.1795 -111.525 65 hurdat_epa main 442 413 O_________P___ hurdat_epa EP031986 19.2000 -111.500 HU 65 1 19.1178 -111.601 4 67 15 322
1986176N11262 1986 58 EP MM CELIA 1986-06-28 21:00:00 TS 19.7313 -112.036 main 413 397 P_________P___ EP031986 19.7451 -112.022 HU 65 1 19.6900 -112.078 4 66 14 318
1986176N11262 1986 58 EP MM CELIA 1986-06-29 00:00:00 TS 20.2000 -112.500 65 hurdat_epa main 397 386 O_________O___ hurdat_epa EP031986 20.2000 -112.500 HU 65 1 20.2000 -112.500 4 65 11 319
1986176N11262 1986 58 EP MM CELIA 1986-06-29 03:00:00 TS 20.5858 -112.840 main 386 386 P_________P___ EP031986 20.5723 -112.838 HU 65 1 20.6262 -112.846 4 60 9 322
1986176N11262 1986 58 EP MM CELIA 1986-06-29 06:00:00 TS 20.9223 -113.109 65 hurdat_epa main 390 383 O_________P___ hurdat_epa EP031986 20.9000 -113.100 HU 65 1 20.9892 -113.134 4 55 8 324
1986176N11262 1986 58 EP MM CELIA 1986-06-29 09:00:00 TS 21.2700 -113.369 main 391 372 P_________P___ EP031986 21.2575 -113.365 HU 55 0 21.3076 -113.380 4 50 8 326
1986176N11262 1986 58 EP MM CELIA 1986-06-29 12:00:00 TS 21.6000 -113.600 45 hurdat_epa main 372 355 O_________O___ hurdat_epa EP031986 21.6000 -113.600 TS 45 0 21.6000 -113.600 2 45 8 327
1986176N11262 1986 58 EP MM CELIA 1986-06-29 15:00:00 TS 21.9123 -113.809 main 355 339 P_________P___ EP031986 21.9149 -113.808 TS 40 0 21.9044 -113.814 2 41 7 328
1986176N11262 1986 58 EP MM CELIA 1986-06-29 18:00:00 TS 22.1968 -114.002 35 hurdat_epa main 339 328 O_________P___ hurdat_epa EP031986 22.2000 -114.000 TS 35 0 22.1871 -114.008 2 37 7 327
1986176N11262 1986 58 EP MM CELIA 1986-06-29 21:00:00 TS 22.4559 -114.194 main 325 323 P_________P___ EP031986 22.4574 -114.193 TS 32 -1 22.4513 -114.198 2 33 6 324
1986176N11262 1986 58 EP MM CELIA 1986-06-30 00:00:00 TS 22.7000 -114.400 30 hurdat_epa main 323 315 O_________O___ hurdat_epa EP031986 22.7000 -114.400 TD 30 -1 22.7000 -114.400 1 30 7 320
1986176N11262 1986 58 EP MM CELIA 1986-06-30 03:00:00 TS 22.9542 -114.644 main 316 316 P_________P___ EP031986 22.9575 -114.643 TD 30 -1 22.9442 -114.647 1 28 7 317
1986176N11262 1986 58 EP MM CELIA 1986-06-30 06:00:00 TS 23.1935 -114.902 30 hurdat_epa main 327 327 O_________P___ hurdat_epa EP031986 23.2000 -114.900 TD 30 -1 23.1740 -114.907 1 27 7 314
1986176N11262 1986 58 EP MM CELIA 1986-06-30 09:00:00 TS 23.4035 -115.159 main 342 337 P_________P___ EP031986 23.4075 -115.158 TD 27 -1 23.3917 -115.163 1 26 6 312
1986176N11262 1986 58 EP MM CELIA 1986-06-30 12:00:00 TS 23.6000 -115.400 25 hurdat_epa main 350 350 O_________O___ hurdat_epa EP031986 23.6000 -115.400 TD 25 -1 23.6000 -115.400 1 25 6 314
1986176N11262 1986 58 EP MM CELIA 1986-06-30 15:00:00 TS 23.7986 -115.610 main 362 362 P_________P___ EP031986 23.7975 -115.610 TD 22 -1 23.8017 -115.608 1 22 5 318
1986176N11262 1986 58 EP MM CELIA 1986-06-30 18:00:00 TS 24.0000 -115.800 20 hurdat_epa main 373 O_________O___ hurdat_epa EP031986 24.0000 -115.800 TD 20 -1 24.0000 -115.800 1 20 5 319

IBTrACS Databaseについて

本データベースは、米国NOAAが公開する1842年以降の世界の熱帯低気圧のベストトラックデータアーカイブInternational Best Track Archive for Climate Stewardship (IBTrACS)を、ウェブで閲覧しやすい形式に変換したものです。

最終更新日:2021-11-26